Aviation Digital Data Service (ADDS)

Output produced by METARs form (0508 UTC 21 September 2017)
found at http://www.aviationweather.gov/adds/metars/
 
EVLA 210450Z AUTO 04002KT 0400 R24/0500D R06/P2000N FG NCD 06/06 Q1020
TAF EVLA 210502Z 2106/2206 06007KT 9999 SCT030 
     TEMPO 2106/2107 0500 FG VV002
       
EVRA 210450Z 04007KT 9999 -RA OVC049 11/10 Q1020 NOSIG
TAF EVRA 210500Z 2106/2206 05007KT 9999 BKN030 
     TEMPO 2200/2206 BKN012 BKN020
       
EVVA 210450Z AUTO 09003KT 7000 NSC 08/08 Q1021